Time;durP1;ratioP1;P1;durP2;ratioP2;P2;SDS_P1;SDS_P2;PMS_P1;PMS_P2;Temp;Humidity;BMP_temperature;BMP_pressure;BME280_temperature;BME280_humidity;BME280_pressure;Samples;Min_cycle;Max_cycle;Signal;HPM_P1;HPM_P2
2021/09/12 00:00:17;;;;;;;;;15.75;13.75;;;;;;;;4975345;28;46037;-73
2021/09/12 00:02:42;;;;;;;;;17.50;17.25;;;;;;;;4982039;28;45668;-74
2021/09/12 00:05:08;;;;;;;;;18.75;17.00;;;;;;;;4989066;28;45317;-73
2021/09/12 00:07:33;;;;;;;;;20.25;18.25;;;;;;;;4991389;28;48077;-74
2021/09/12 00:09:58;;;;;;;;;17.00;16.75;;;;;;;;5000014;28;45394;-73
2021/09/12 00:12:24;;;;;;;;;20.50;19.00;;;;;;;;4992965;28;45577;-73
2021/09/12 00:14:49;;;;;;;;;21.50;19.00;;;;;;;;4992070;28;45414;-73
2021/09/12 00:17:14;;;;;;;;;21.50;18.75;;;;;;;;4985913;28;46004;-73
2021/09/12 00:19:39;;;;;;;;;15.75;15.75;;;;;;;;4984586;28;45422;-73
2021/09/12 00:22:05;;;;;;;;;21.50;19.00;;;;;;;;4991979;28;45570;-73
2021/09/12 00:24:30;;;;;;;;;21.25;18.75;;;;;;;;4990804;28;45562;-73
2021/09/12 00:26:55;;;;;;;;;17.50;17.25;;;;;;;;4972497;28;48216;-73
2021/09/12 00:29:21;;;;;;;;;19.00;16.00;;;;;;;;4987179;28;45239;-73
2021/09/12 00:31:47;;;;;;;;;16.00;15.75;;;;;;;;4986377;28;45640;-73
2021/09/12 00:34:12;;;;;;;;;15.00;14.00;;;;;;;;4995378;28;45522;-73
2021/09/12 00:36:37;;;;;;;;;19.25;17.50;;;;;;;;4989720;28;46074;-73
2021/09/12 00:39:03;;;;;;;;;17.50;16.00;;;;;;;;4974931;28;45433;-73
2021/09/12 00:41:38;;;;;;;;;17.75;16.50;;;;;;;;4985660;28;45334;-73
2021/09/12 00:44:04;;;;;;;;;18.25;17.25;;;;;;;;4984553;28;45450;-73
2021/09/12 00:46:29;;;;;;;;;13.50;13.00;;;;;;;;4992388;28;45662;-73
2021/09/12 00:48:55;;;;;;;;;16.00;15.75;;;;;;;;4986679;28;45505;-73
2021/09/12 00:51:20;;;;;;;;;17.75;16.50;;;;;;;;4988955;28;45461;-73
2021/09/12 00:53:46;;;;;;;;;22.00;18.00;;;;;;;;4978556;28;45431;-73
2021/09/12 00:56:12;;;;;;;;;16.00;13.75;;;;;;;;4990053;28;45584;-73
2021/09/12 00:58:39;;;;;;;;;18.50;14.00;;;;;;;;4990094;28;47015;-73
2021/09/12 01:01:04;;;;;;;;;17.75;16.75;;;;;;;;4986586;28;45405;-73
2021/09/12 01:03:29;;;;;;;;;16.75;16.75;;;;;;;;4988801;28;45418;-73
2021/09/12 01:05:54;;;;;;;;;13.50;12.00;;;;;;;;4976335;28;46267;-73
2021/09/12 01:08:20;;;;;;;;;17.25;15.25;;;;;;;;4975167;28;45355;-72
2021/09/12 01:10:46;;;;;;;;;20.75;18.00;;;;;;;;4977424;28;45625;-73
2021/09/12 01:13:11;;;;;;;;;16.50;12.50;;;;;;;;4983167;28;45418;-73
2021/09/12 01:15:36;;;;;;;;;18.25;16.75;;;;;;;;4998060;28;45994;-73
2021/09/12 01:18:02;;;;;;;;;16.25;15.25;;;;;;;;4997995;28;45501;-75
2021/09/12 01:20:27;;;;;;;;;18.50;16.25;;;;;;;;4981211;28;45350;-74
2021/09/12 01:22:52;;;;;;;;;17.25;15.50;;;;;;;;4993022;28;45625;-74
2021/09/12 01:25:17;;;;;;;;;16.75;15.25;;;;;;;;4984859;28;46889;-74
2021/09/12 01:27:43;;;;;;;;;16.00;16.00;;;;;;;;4994229;28;45430;-74
2021/09/12 01:30:09;;;;;;;;;14.50;12.50;;;;;;;;4987785;28;45541;-74
2021/09/12 01:32:34;;;;;;;;;16.25;14.00;;;;;;;;4979408;28;45599;-73
2021/09/12 01:35:00;;;;;;;;;11.00;10.25;;;;;;;;4985417;28;46462;-74
2021/09/12 01:37:25;;;;;;;;;13.50;13.50;;;;;;;;4977790;28;45389;-74
2021/09/12 01:39:50;;;;;;;;;12.50;12.50;;;;;;;;4979226;28;45596;-74
2021/09/12 01:42:16;;;;;;;;;11.25;11.25;;;;;;;;4985710;28;45358;-74
2021/09/12 01:44:48;;;;;;;;;13.50;13.50;;;;;;;;4968726;28;47260;-74
2021/09/12 01:47:13;;;;;;;;;14.00;13.00;;;;;;;;4982795;28;45392;-72
2021/09/12 01:49:39;;;;;;;;;15.00;15.00;;;;;;;;4976233;28;45580;-72
2021/09/12 01:52:05;;;;;;;;;15.00;12.25;;;;;;;;4981151;28;45486;-72
2021/09/12 01:54:30;;;;;;;;;15.25;13.50;;;;;;;;4983180;28;47048;-74
2021/09/12 01:56:55;;;;;;;;;12.75;12.75;;;;;;;;4990060;28;45484;-72
2021/09/12 01:59:20;;;;;;;;;12.50;12.50;;;;;;;;4983573;28;45473;-74
2021/09/12 02:01:46;;;;;;;;;15.00;13.25;;;;;;;;4979106;28;45525;-75
2021/09/12 02:04:11;;;;;;;;;11.25;11.00;;;;;;;;4994831;28;46884;-74
2021/09/12 02:06:36;;;;;;;;;12.25;10.25;;;;;;;;4977035;28;45356;-74
2021/09/12 02:09:02;;;;;;;;;14.50;13.25;;;;;;;;4995213;28;46290;-74
2021/09/12 02:11:27;;;;;;;;;14.75;13.50;;;;;;;;4987756;28;45371;-74
2021/09/12 02:13:53;;;;;;;;;11.00;10.50;;;;;;;;4981145;28;45436;-74
2021/09/12 02:16:21;;;;;;;;;12.00;10.50;;;;;;;;4994255;28;45602;-74
2021/09/12 02:18:46;;;;;;;;;17.50;16.50;;;;;;;;4987058;28;45430;-74
2021/09/12 02:21:11;;;;;;;;;15.00;13.00;;;;;;;;4990362;28;45436;-74
2021/09/12 02:23:37;;;;;;;;;12.25;11.75;;;;;;;;4997218;28;45412;-74
2021/09/12 02:26:02;;;;;;;;;15.50;14.00;;;;;;;;4989570;28;45479;-74
2021/09/12 02:28:27;;;;;;;;;15.75;13.00;;;;;;;;4998265;28;45639;-74
2021/09/12 02:30:52;;;;;;;;;12.00;12.00;;;;;;;;4977106;28;45398;-74
2021/09/12 02:33:17;;;;;;;;;10.75;10.75;;;;;;;;4998389;28;45525;-71
2021/09/12 02:35:43;;;;;;;;;14.50;13.75;;;;;;;;4979950;28;45512;-72
2021/09/12 02:38:08;;;;;;;;;13.25;13.25;;;;;;;;4991230;28;45343;-72
2021/09/12 02:40:33;;;;;;;;;15.75;15.00;;;;;;;;4993893;28;45443;-73
2021/09/12 02:42:58;;;;;;;;;15.25;14.00;;;;;;;;4990584;28;46409;-72
2021/09/12 02:45:23;;;;;;;;;15.25;12.00;;;;;;;;4979961;28;45333;-72
2021/09/12 02:47:49;;;;;;;;;13.25;12.75;;;;;;;;4989594;28;45431;-73
2021/09/12 02:50:14;;;;;;;;;10.75;9.00;;;;;;;;4987171;28;45309;-73
2021/09/12 02:52:39;;;;;;;;;13.50;12.25;;;;;;;;4989054;28;47102;-72
2021/09/12 02:55:05;;;;;;;;;12.50;12.50;;;;;;;;5001606;28;45283;-73
2021/09/12 02:57:30;;;;;;;;;15.25;15.00;;;;;;;;5001664;27;45531;-73
2021/09/12 02:59:57;;;;;;;;;15.25;13.00;;;;;;;;4980744;28;45281;-73
2021/09/12 03:02:22;;;;;;;;;15.75;12.00;;;;;;;;4983727;28;46222;-73
2021/09/12 03:04:48;;;;;;;;;11.00;11.00;;;;;;;;4979081;28;45520;-72
2021/09/12 03:07:13;;;;;;;;;17.25;14.75;;;;;;;;4979473;28;45789;-73
2021/09/12 03:09:38;;;;;;;;;12.25;12.25;;;;;;;;4998734;28;47157;-73
2021/09/12 03:12:03;;;;;;;;;13.25;12.25;;;;;;;;5001958;28;47168;-74
2021/09/12 03:14:29;;;;;;;;;11.00;10.00;;;;;;;;4991463;28;45404;-74
2021/09/12 03:16:54;;;;;;;;;11.00;11.00;;;;;;;;4988611;28;45276;-74
2021/09/12 03:19:19;;;;;;;;;12.00;11.00;;;;;;;;4977946;28;45350;-74
2021/09/12 03:21:44;;;;;;;;;13.75;11.25;;;;;;;;4990621;28;47910;-74
2021/09/12 03:24:10;;;;;;;;;13.00;13.00;;;;;;;;5006762;28;45434;-73
2021/09/12 03:26:35;;;;;;;;;11.25;11.25;;;;;;;;4997987;28;45441;-74
2021/09/12 03:29:00;;;;;;;;;11.75;10.00;;;;;;;;4990015;28;45838;-73
2021/09/12 03:31:26;;;;;;;;;13.50;13.00;;;;;;;;4987275;28;47076;-74
2021/09/12 03:33:51;;;;;;;;;13.00;11.50;;;;;;;;4992123;28;45452;-73
2021/09/12 03:36:16;;;;;;;;;13.75;12.25;;;;;;;;4976405;28;45218;-73
2021/09/12 03:38:41;;;;;;;;;12.00;12.00;;;;;;;;4996405;28;45968;-73
2021/09/12 03:41:06;;;;;;;;;11.00;10.00;;;;;;;;4989672;28;46240;-74
2021/09/12 03:43:32;;;;;;;;;10.00;10.00;;;;;;;;4988028;28;45595;-74
2021/09/12 03:45:57;;;;;;;;;11.75;11.00;;;;;;;;4991165;28;45478;-74
2021/09/12 03:48:25;;;;;;;;;17.25;14.75;;;;;;;;4989662;28;45335;-74
2021/09/12 03:50:50;;;;;;;;;15.25;14.25;;;;;;;;4988634;28;47503;-74
2021/09/12 03:53:16;;;;;;;;;12.75;12.00;;;;;;;;4990278;28;47667;-74
2021/09/12 03:55:41;;;;;;;;;11.75;11.75;;;;;;;;4991812;28;45541;-73
2021/09/12 03:58:07;;;;;;;;;12.50;10.00;;;;;;;;4985875;28;45464;-74
2021/09/12 04:00:32;;;;;;;;;12.25;12.25;;;;;;;;4973683;28;46809;-74
2021/09/12 04:02:57;;;;;;;;;12.00;12.00;;;;;;;;4988083;28;45443;-74
2021/09/12 04:05:22;;;;;;;;;10.25;10.25;;;;;;;;4986794;28;45528;-74
2021/09/12 04:07:47;;;;;;;;;16.00;16.00;;;;;;;;4988132;28;45521;-74
2021/09/12 04:10:13;;;;;;;;;13.00;12.00;;;;;;;;4996731;28;46570;-75
2021/09/12 04:12:38;;;;;;;;;14.00;10.75;;;;;;;;5003517;28;45562;-75
2021/09/12 04:15:03;;;;;;;;;14.00;13.00;;;;;;;;4997485;28;45532;-74
2021/09/12 04:17:29;;;;;;;;;10.25;10.25;;;;;;;;4974995;28;45328;-74
2021/09/12 04:19:54;;;;;;;;;14.25;13.25;;;;;;;;4978050;28;46424;-73
2021/09/12 04:22:19;;;;;;;;;11.00;10.00;;;;;;;;4977971;28;46025;-74
2021/09/12 04:24:44;;;;;;;;;6.00;3.00;;;;;;;;4999711;28;45542;-74
2021/09/12 04:27:10;;;;;;;;;11.00;10.75;;;;;;;;4989555;28;45582;-74
2021/09/12 04:29:35;;;;;;;;;16.00;13.00;;;;;;;;4973733;28;46837;-74
2021/09/12 04:32:01;;;;;;;;;12.50;12.50;;;;;;;;4989071;28;45370;-74
2021/09/12 04:34:26;;;;;;;;;11.25;11.25;;;;;;;;4972826;28;45442;-74
2021/09/12 04:36:51;;;;;;;;;16.75;14.00;;;;;;;;4988310;28;45463;-74
2021/09/12 04:39:16;;;;;;;;;14.75;14.50;;;;;;;;5001472;28;46842;-74
2021/09/12 04:41:41;;;;;;;;;14.75;13.00;;;;;;;;4987012;28;45440;-74
2021/09/12 04:44:07;;;;;;;;;8.00;8.00;;;;;;;;4984965;28;45284;-74
2021/09/12 04:46:32;;;;;;;;;13.50;10.50;;;;;;;;4992507;28;45612;-74
2021/09/12 04:48:57;;;;;;;;;12.50;12.50;;;;;;;;4988473;28;46485;-74
2021/09/12 04:51:23;;;;;;;;;13.25;13.25;;;;;;;;4974367;28;45304;-74
2021/09/12 04:53:48;;;;;;;;;11.00;9.00;;;;;;;;4989357;28;45295;-73
2021/09/12 04:56:13;;;;;;;;;15.00;13.75;;;;;;;;4988653;28;45492;-73
2021/09/12 04:58:39;;;;;;;;;17.50;11.50;;;;;;;;4978170;28;47268;-74
2021/09/12 05:01:04;;;;;;;;;11.25;10.00;;;;;;;;4975998;28;45491;-73
2021/09/12 05:03:29;;;;;;;;;11.25;11.25;;;;;;;;4990092;28;45430;-74
2021/09/12 05:05:55;;;;;;;;;13.25;12.25;;;;;;;;4973582;28;45280;-73
2021/09/12 05:08:20;;;;;;;;;11.25;11.25;;;;;;;;4991443;28;45488;-73
2021/09/12 05:10:45;;;;;;;;;15.00;14.25;;;;;;;;4991326;28;45962;-73
2021/09/12 05:13:10;;;;;;;;;15.00;13.75;;;;;;;;4989231;28;45415;-72
2021/09/12 05:15:36;;;;;;;;;14.50;10.50;;;;;;;;4994443;28;45271;-72
2021/09/12 05:18:01;;;;;;;;;33.00;25.00;;;;;;;;4985654;28;45318;-73
2021/09/12 05:20:26;;;;;;;;;17.50;12.50;;;;;;;;4977864;28;45402;-74
2021/09/12 05:22:51;;;;;;;;;15.25;14.25;;;;;;;;4984057;28;45398;-72
2021/09/12 05:25:16;;;;;;;;;34.75;30.00;;;;;;;;4998034;28;45458;-73
2021/09/12 05:27:42;;;;;;;;;33.00;28.50;;;;;;;;4995736;28;45330;-73
2021/09/12 05:30:07;;;;;;;;;20.75;18.25;;;;;;;;4978595;28;45410;-73
2021/09/12 05:32:33;;;;;;;;;22.00;19.75;;;;;;;;4986725;28;45540;-73
2021/09/12 05:34:58;;;;;;;;;18.50;18.50;;;;;;;;4990234;28;45509;-73
2021/09/12 05:37:23;;;;;;;;;27.50;21.50;;;;;;;;4987158;28;45489;-74
2021/09/12 05:39:48;;;;;;;;;19.75;17.75;;;;;;;;5001480;28;45284;-73
2021/09/12 05:42:13;;;;;;;;;15.50;13.75;;;;;;;;4990635;28;45288;-73
2021/09/12 05:44:39;;;;;;;;;12.75;12.50;;;;;;;;4979920;28;46094;-73
2021/09/12 05:47:04;;;;;;;;;15.50;11.75;;;;;;;;4982801;28;46409;-72
2021/09/12 05:49:29;;;;;;;;;16.25;14.00;;;;;;;;4979700;28;45433;-73
2021/09/12 05:51:54;;;;;;;;;13.00;10.50;;;;;;;;4977965;28;45352;-73
2021/09/12 05:54:20;;;;;;;;;15.00;13.00;;;;;;;;4996150;28;46196;-74
2021/09/12 05:56:46;;;;;;;;;22.50;18.75;;;;;;;;4989409;28;46151;-73
2021/09/12 05:59:11;;;;;;;;;16.50;16.50;;;;;;;;4982290;28;45473;-73
2021/09/12 06:01:36;;;;;;;;;12.25;12.25;;;;;;;;4974527;28;45391;-73
2021/09/12 06:04:02;;;;;;;;;16.50;15.75;;;;;;;;4976888;28;45421;-73
2021/09/12 06:06:27;;;;;;;;;15.25;11.00;;;;;;;;4990997;28;46647;-73
2021/09/12 06:08:52;;;;;;;;;13.75;13.75;;;;;;;;5001511;28;45600;-73
2021/09/12 06:11:18;;;;;;;;;9.75;9.50;;;;;;;;4984259;28;45481;-73
2021/09/12 06:13:43;;;;;;;;;16.00;14.50;;;;;;;;4980594;28;45434;-73
2021/09/12 06:16:08;;;;;;;;;15.50;13.75;;;;;;;;4995370;28;45571;-73
2021/09/12 06:18:34;;;;;;;;;17.00;17.00;;;;;;;;4999512;28;45424;-73
2021/09/12 06:20:59;;;;;;;;;14.50;14.25;;;;;;;;4989410;28;45384;-73
2021/09/12 06:23:24;;;;;;;;;18.00;14.00;;;;;;;;4986143;28;45288;-74
2021/09/12 06:25:50;;;;;;;;;13.50;12.50;;;;;;;;4987059;28;46406;-74
2021/09/12 06:28:15;;;;;;;;;16.75;13.75;;;;;;;;4985523;28;45650;-73
2021/09/12 06:30:40;;;;;;;;;10.00;9.00;;;;;;;;4988170;28;45351;-73
2021/09/12 06:33:05;;;;;;;;;17.00;14.75;;;;;;;;5000413;28;45447;-72
2021/09/12 06:35:31;;;;;;;;;15.75;15.25;;;;;;;;4979244;28;46400;-74
2021/09/12 06:37:56;;;;;;;;;21.25;17.50;;;;;;;;4986547;28;45441;-72
2021/09/12 06:40:23;;;;;;;;;17.50;15.50;;;;;;;;4996830;28;45449;-74
2021/09/12 06:42:48;;;;;;;;;18.75;18.50;;;;;;;;4988993;28;48057;-74
2021/09/12 06:45:14;;;;;;;;;15.75;15.00;;;;;;;;4995609;28;46737;-74
2021/09/12 06:47:39;;;;;;;;;16.75;14.25;;;;;;;;4981763;28;45598;-73
2021/09/12 06:50:04;;;;;;;;;11.75;10.50;;;;;;;;4985839;28;46081;-72
2021/09/12 06:52:30;;;;;;;;;13.00;12.25;;;;;;;;4978644;28;45557;-74
2021/09/12 06:54:56;;;;;;;;;12.50;12.50;;;;;;;;4995376;28;46618;-74
2021/09/12 06:57:21;;;;;;;;;16.00;16.00;;;;;;;;4989121;28;45507;-75
2021/09/12 06:59:46;;;;;;;;;14.75;9.50;;;;;;;;4971117;28;45477;-74
2021/09/12 07:02:12;;;;;;;;;20.50;17.75;;;;;;;;4987803;28;45572;-74
2021/09/12 07:04:38;;;;;;;;;11.25;11.25;;;;;;;;4986667;28;46215;-73
2021/09/12 07:07:03;;;;;;;;;14.25;11.00;;;;;;;;4987576;28;45523;-74
2021/09/12 07:09:28;;;;;;;;;14.50;11.75;;;;;;;;4985630;28;45351;-73
2021/09/12 07:11:53;;;;;;;;;12.25;10.00;;;;;;;;4988636;28;45588;-73
2021/09/12 07:14:18;;;;;;;;;14.00;13.00;;;;;;;;4990813;28;47373;-74
2021/09/12 07:16:44;;;;;;;;;13.75;11.75;;;;;;;;4994269;28;45363;-73
2021/09/12 07:19:09;;;;;;;;;14.25;10.00;;;;;;;;4995882;28;45522;-73
2021/09/12 07:21:34;;;;;;;;;11.25;10.25;;;;;;;;4991512;28;45259;-73
2021/09/12 07:24:00;;;;;;;;;11.25;11.25;;;;;;;;5002783;28;47081;-73
2021/09/12 07:26:25;;;;;;;;;8.00;8.00;;;;;;;;4989744;28;45663;-74
2021/09/12 07:28:50;;;;;;;;;11.00;11.00;;;;;;;;4986514;28;45484;-74
2021/09/12 07:31:15;;;;;;;;;10.00;8.50;;;;;;;;4980461;28;45358;-74
2021/09/12 07:33:41;;;;;;;;;12.75;9.00;;;;;;;;4974271;28;46254;-73
2021/09/12 07:36:06;;;;;;;;;11.00;9.00;;;;;;;;4976874;28;45358;-75
2021/09/12 07:38:31;;;;;;;;;11.75;11.00;;;;;;;;4993708;28;45611;-74
2021/09/12 07:40:56;;;;;;;;;10.00;9.00;;;;;;;;4990673;28;45497;-74
2021/09/12 07:43:21;;;;;;;;;12.75;10.75;;;;;;;;4988601;28;45889;-75
2021/09/12 07:45:47;;;;;;;;;10.25;8.25;;;;;;;;4996084;28;46725;-75
2021/09/12 07:48:12;;;;;;;;;9.50;9.50;;;;;;;;4989593;28;45386;-74
2021/09/12 07:50:37;;;;;;;;;10.75;9.75;;;;;;;;4986740;28;45481;-73
2021/09/12 07:53:02;;;;;;;;;10.50;6.75;;;;;;;;4990491;28;46297;-73
2021/09/12 07:55:28;;;;;;;;;8.00;8.00;;;;;;;;4973399;28;45511;-73
2021/09/12 07:57:53;;;;;;;;;13.00;11.50;;;;;;;;4987628;28;45565;-74
2021/09/12 08:00:18;;;;;;;;;12.00;9.75;;;;;;;;4973001;28;45395;-74
2021/09/12 08:02:44;;;;;;;;;9.25;8.00;;;;;;;;4985060;28;45375;-70
2021/09/12 08:05:09;;;;;;;;;9.00;6.50;;;;;;;;4980799;28;45501;-69
2021/09/12 08:07:35;;;;;;;;;8.75;8.75;;;;;;;;4982858;28;45471;-69
2021/09/12 08:10:00;;;;;;;;;10.25;9.25;;;;;;;;4997580;28;45542;-70
2021/09/12 08:12:25;;;;;;;;;8.00;7.50;;;;;;;;4987844;28;46349;-72
2021/09/12 08:14:50;;;;;;;;;8.75;7.00;;;;;;;;4986835;28;45286;-71
2021/09/12 08:17:16;;;;;;;;;6.00;6.00;;;;;;;;4987992;28;45442;-72
2021/09/12 08:19:41;;;;;;;;;7.50;6.75;;;;;;;;4993664;28;45354;-71
2021/09/12 08:22:06;;;;;;;;;5.75;5.25;;;;;;;;4986611;28;46254;-71
2021/09/12 08:24:31;;;;;;;;;6.25;6.25;;;;;;;;5001746;28;45476;-71
2021/09/12 08:26:56;;;;;;;;;4.75;4.75;;;;;;;;4987648;28;45537;-71
2021/09/12 08:29:22;;;;;;;;;4.00;4.00;;;;;;;;4991345;28;45561;-71
2021/09/12 08:31:47;;;;;;;;;4.50;4.50;;;;;;;;4984683;28;45871;-71
2021/09/12 08:34:12;;;;;;;;;6.50;5.75;;;;;;;;4988907;28;45577;-71
2021/09/12 08:36:38;;;;;;;;;5.00;4.00;;;;;;;;4973197;28;45286;-72
2021/09/12 08:39:03;;;;;;;;;3.50;3.50;;;;;;;;5002705;28;45596;-72
2021/09/12 08:41:29;;;;;;;;;7.25;5.50;;;;;;;;4985561;28;45227;-71
2021/09/12 08:43:54;;;;;;;;;14.00;14.00;;;;;;;;4991698;28;45321;-72
2021/09/12 08:46:20;;;;;;;;;6.00;5.00;;;;;;;;4996250;28;45325;-72
2021/09/12 08:48:45;;;;;;;;;5.25;5.25;;;;;;;;4984731;28;45739;-72
2021/09/12 08:51:11;;;;;;;;;6.50;6.50;;;;;;;;4987642;28;46291;-72
2021/09/12 08:53:36;;;;;;;;;4.00;3.00;;;;;;;;4988443;28;45442;-70
2021/09/12 08:56:01;;;;;;;;;7.50;6.75;;;;;;;;4992394;27;45902;-71
2021/09/12 08:58:28;;;;;;;;;5.75;5.75;;;;;;;;4990367;28;45422;-70
2021/09/12 09:00:56;;;;;;;;;4.00;4.00;;;;;;;;4977262;28;47021;-70
2021/09/12 09:03:21;;;;;;;;;7.50;6.50;;;;;;;;4990208;28;45477;-72
2021/09/12 09:05:47;;;;;;;;;5.25;5.25;;;;;;;;4994844;28;45515;-72
2021/09/12 09:08:14;;;;;;;;;5.50;5.25;;;;;;;;5003443;28;45575;-71
2021/09/12 09:10:42;;;;;;;;;4.33;4.00;;;;;;;;4995857;28;45342;-71
2021/09/12 09:13:37;;;;;;;;;3.67;3.67;;;;;;;;4981376;28;47130;-72
2021/09/12 09:16:07;;;;;;;;;4.00;4.00;;;;;;;;4997763;27;45344;-71
2021/09/12 09:18:32;;;;;;;;;8.75;7.50;;;;;;;;4992462;28;45283;-71
2021/09/12 09:20:58;;;;;;;;;4.00;3.00;;;;;;;;4989968;28;45531;-70
2021/09/12 09:23:23;;;;;;;;;6.75;6.75;;;;;;;;4994759;28;45482;-70
2021/09/12 09:25:50;;;;;;;;;5.67;4.33;;;;;;;;4990961;28;45461;-71
2021/09/12 09:28:15;;;;;;;;;4.50;4.50;;;;;;;;4981585;28;45820;-71
2021/09/12 09:30:54;;;;;;;;;4.67;3.33;;;;;;;;4995781;28;46060;-70
2021/09/12 09:33:22;;;;;;;;;4.00;4.00;;;;;;;;4995171;28;45633;-72
2021/09/12 09:35:55;;;;;;;;;3.33;3.33;;;;;;;;4990995;28;45476;-71
2021/09/12 09:38:21;;;;;;;;;9.75;7.50;;;;;;;;4992089;28;45439;-70
2021/09/12 09:40:56;;;;;;;;;4.00;3.00;;;;;;;;4979011;28;45525;-71
2021/09/12 09:43:21;;;;;;;;;4.00;2.67;;;;;;;;4979814;28;45237;-71
2021/09/12 09:45:46;;;;;;;;;4.33;3.67;;;;;;;;4992895;28;45304;-72
2021/09/12 09:48:12;;;;;;;;;3.75;3.75;;;;;;;;5000356;28;45489;-71
2021/09/12 09:50:37;;;;;;;;;2.00;2.00;;;;;;;;4987398;28;46056;-72
2021/09/12 09:53:04;;;;;;;;;4.50;3.00;;;;;;;;4989692;28;45370;-70
2021/09/12 09:55:29;;;;;;;;;8.75;7.25;;;;;;;;4995365;28;45347;-71
2021/09/12 09:57:56;;;;;;;;;8.50;6.00;;;;;;;;4987851;28;45464;-72
2021/09/12 10:00:23;;;;;;;;;4.75;3.00;;;;;;;;4973030;28;45819;-70
2021/09/12 10:02:50;;;;;;;;;2.33;2.33;;;;;;;;4976857;28;45348;-70
2021/09/12 10:05:19;;;;;;;;;3.67;2.33;;;;;;;;4983596;28;45239;-70
2021/09/12 10:07:44;;;;;;;;;3.75;3.75;;;;;;;;4987698;28;45439;-70
2021/09/12 10:10:10;;;;;;;;;3.00;3.00;;;;;;;;4997206;28;46237;-70
2021/09/12 10:12:38;;;;;;;;;2.75;1.75;;;;;;;;4975442;28;45365;-71
2021/09/12 10:15:09;;;;;;;;;4.50;2.50;;;;;;;;4992771;28;45307;-72
2021/09/12 10:17:36;;;;;;;;;3.75;3.75;;;;;;;;4983320;28;45265;-71
2021/09/12 10:20:07;;;;;;;;;12.25;12.25;;;;;;;;4989669;28;46590;-72
2021/09/12 10:22:47;;;;;;;;;7.25;6.25;;;;;;;;4988218;28;45456;-70
2021/09/12 10:25:15;;;;;;;;;11.50;11.50;;;;;;;;4985348;28;45411;-71
2021/09/12 10:27:41;;;;;;;;;6.50;6.50;;;;;;;;4989847;28;45475;-70
2021/09/12 10:30:25;;;;;;;;;2.00;2.00;;;;;;;;4987890;28;45380;-71
2021/09/12 10:32:52;;;;;;;;;6.50;3.50;;;;;;;;4991593;28;45231;-71
2021/09/12 10:35:26;;;;;;;;;12.75;12.75;;;;;;;;4987864;28;45233;-71
2021/09/12 10:37:58;;;;;;;;;8.75;6.75;;;;;;;;4987771;28;45455;-71
2021/09/12 10:40:24;;;;;;;;;9.00;8.00;;;;;;;;4995912;28;47222;-71
2021/09/12 10:42:49;;;;;;;;;10.00;10.00;;;;;;;;4973199;28;45318;-71
2021/09/12 10:45:25;;;;;;;;;5.50;5.50;;;;;;;;5000362;28;45298;-71
2021/09/12 10:47:51;;;;;;;;;4.75;4.00;;;;;;;;4936620;28;1214013;-72
2021/09/12 10:50:35;;;;;;;;;3.00;3.00;;;;;;;;4991169;28;45871;-71
2021/09/12 10:53:00;;;;;;;;;3.33;2.67;;;;;;;;4993149;27;45510;-71
2021/09/12 10:55:25;;;;;;;;;4.00;4.00;;;;;;;;4994444;28;45563;-73
2021/09/12 10:57:50;;;;;;;;;3.67;3.00;;;;;;;;4997958;28;45585;-72
2021/09/12 11:00:17;;;;;;;;;3.33;3.00;;;;;;;;4974863;28;45595;-72
2021/09/12 11:02:47;;;;;;;;;3.00;3.00;;;;;;;;4980687;28;45366;-70
2021/09/12 11:05:21;;;;;;;;;4.67;3.67;;;;;;;;4990643;28;45410;-69
2021/09/12 11:07:54;;;;;;;;;2.00;2.00;;;;;;;;4992056;28;45365;-70
2021/09/12 11:10:34;;;;;;;;;3.00;2.67;;;;;;;;4994009;28;46530;-72
2021/09/12 11:12:59;;;;;;;;;5.33;4.67;;;;;;;;4986878;28;45353;-70
2021/09/12 11:15:25;;;;;;;;;4.00;4.00;;;;;;;;4993964;28;45310;-72
2021/09/12 11:17:53;;;;;;;;;1.67;1.67;;;;;;;;4986410;28;45427;-71
2021/09/12 11:20:18;;;;;;;;;4.00;3.00;;;;;;;;4983634;28;46156;-70
2021/09/12 11:22:49;;;;;;;;;3.00;3.00;;;;;;;;4979855;28;45712;-72
2021/09/12 11:25:18;;;;;;;;;4.00;4.00;;;;;;;;4992651;28;45469;-71
2021/09/12 11:27:43;;;;;;;;;3.00;3.00;;;;;;;;4991534;28;45570;-73
2021/09/12 11:30:09;;;;;;;;;4.00;3.00;;;;;;;;4983426;28;47033;-70
2021/09/12 11:32:34;;;;;;;;;3.00;3.00;;;;;;;;4988821;28;45373;-73
2021/09/12 11:34:59;;;;;;;;;13.33;9.33;;;;;;;;4987734;28;45313;-73
2021/09/12 11:37:25;;;;;;;;;4.00;3.67;;;;;;;;4991460;28;45325;-71
2021/09/12 11:39:55;;;;;;;;;6.00;5.00;;;;;;;;5001544;28;46528;-71
2021/09/12 11:42:20;;;;;;;;;4.00;4.00;;;;;;;;4987860;28;45687;-73
2021/09/12 11:44:47;;;;;;;;;2.33;2.33;;;;;;;;4994552;28;45451;-70
2021/09/12 11:47:16;;;;;;;;;3.00;3.00;;;;;;;;4988413;28;45431;-72
2021/09/12 11:49:42;;;;;;;;;3.00;1.67;;;;;;;;4990559;28;45392;-72
2021/09/12 11:52:08;;;;;;;;;3.00;3.00;;;;;;;;4986213;28;45438;-72
2021/09/12 11:54:37;;;;;;;;;7.25;5.75;;;;;;;;5002215;28;45345;-71
2021/09/12 11:57:07;;;;;;;;;5.25;3.75;;;;;;;;4988141;28;45334;-71
2021/09/12 11:59:34;;;;;;;;;4.67;3.67;;;;;;;;4980151;28;46112;-71
2021/09/12 12:02:00;;;;;;;;;3.00;2.75;;;;;;;;4979040;28;45393;-72
2021/09/12 12:04:28;;;;;;;;;8.00;6.75;;;;;;;;4985292;28;45304;-72
2021/09/12 12:06:55;;;;;;;;;2.00;2.00;;;;;;;;4975991;28;45222;-71
2021/09/12 12:09:31;;;;;;;;;3.25;3.25;;;;;;;;5004412;28;46033;-72
2021/09/12 12:12:06;;;;;;;;;4.00;4.00;;;;;;;;4976345;28;45474;-72
2021/09/12 12:14:32;;;;;;;;;4.25;4.25;;;;;;;;4986454;28;45503;-72
2021/09/12 12:17:01;;;;;;;;;2.75;2.75;;;;;;;;4988545;28;45509;-71
2021/09/12 12:19:32;;;;;;;;;2.33;2.33;;;;;;;;4990259;28;46331;-71
2021/09/12 12:22:02;;;;;;;;;4.00;4.00;;;;;;;;4987320;28;45469;-72
2021/09/12 12:24:33;;;;;;;;;3.50;3.50;;;;;;;;5001558;28;45477;-70
2021/09/12 12:27:03;;;;;;;;;4.00;4.00;;;;;;;;4987228;27;45445;-71
2021/09/12 12:29:30;;;;;;;;;4.00;4.00;;;;;;;;4973864;28;45740;-72
2021/09/12 12:31:57;;;;;;;;;4.33;3.67;;;;;;;;4976864;28;45399;-72
2021/09/12 12:34:36;;;;;;;;;5.00;5.00;;;;;;;;4998311;28;45424;-72
2021/09/12 12:37:02;;;;;;;;;3.33;3.33;;;;;;;;4976520;28;45177;-72
2021/09/12 12:39:27;;;;;;;;;4.00;4.00;;;;;;;;5001532;28;46016;-71
2021/09/12 12:41:53;;;;;;;;;5.00;4.00;;;;;;;;4998261;28;45252;-72
2021/09/12 12:44:19;;;;;;;;;3.33;3.00;;;;;;;;4992958;28;45287;-72
2021/09/12 12:46:45;;;;;;;;;4.33;4.33;;;;;;;;4990159;28;45715;-72
2021/09/12 12:49:10;;;;;;;;;6.00;4.00;;;;;;;;4984537;28;45621;-71
2021/09/12 12:51:35;;;;;;;;;2.00;2.00;;;;;;;;4989053;28;45523;-72
2021/09/12 12:54:01;;;;;;;;;4.00;3.00;;;;;;;;4997221;28;45581;-72
2021/09/12 12:56:29;;;;;;;;;4.00;4.00;;;;;;;;4992627;28;45604;-70
2021/09/12 12:58:54;;;;;;;;;4.00;4.00;;;;;;;;4989718;28;47176;-72
2021/09/12 13:01:19;;;;;;;;;3.00;3.00;;;;;;;;4976091;28;45362;-72
2021/09/12 13:03:45;;;;;;;;;4.00;4.00;;;;;;;;4973281;28;45802;-71
2021/09/12 13:06:11;;;;;;;;;3.33;3.33;;;;;;;;4997638;28;45688;-71
2021/09/12 13:08:37;;;;;;;;;4.00;4.00;;;;;;;;4991973;28;47185;-71
2021/09/12 13:11:02;;;;;;;;;4.67;3.00;;;;;;;;4988548;28;45383;-70
2021/09/12 13:13:28;;;;;;;;;4.00;4.00;;;;;;;;4990050;28;45480;-70
2021/09/12 13:15:53;;;;;;;;;6.00;2.67;;;;;;;;4984438;27;45574;-71
2021/09/12 13:18:18;;;;;;;;;3.67;3.00;;;;;;;;4980812;27;47852;-71
2021/09/12 13:20:44;;;;;;;;;4.67;3.00;;;;;;;;4984666;28;45300;-70
2021/09/12 13:23:09;;;;;;;;;3.67;3.00;;;;;;;;4989075;28;45443;-72
2021/09/12 13:25:35;;;;;;;;;4.67;4.67;;;;;;;;4992413;28;45461;-73
2021/09/12 13:28:01;;;;;;;;;3.33;3.33;;;;;;;;4989298;28;46837;-71
2021/09/12 13:30:27;;;;;;;;;4.00;4.00;;;;;;;;4955127;28;45615;-72
2021/09/12 13:32:52;;;;;;;;;3.33;3.33;;;;;;;;4992769;28;45424;-75
2021/09/12 13:35:18;;;;;;;;;1.33;1.33;;;;;;;;4986532;28;45469;-71
2021/09/12 13:37:44;;;;;;;;;3.00;3.00;;;;;;;;4986565;28;46214;-71
2021/09/12 13:40:10;;;;;;;;;3.67;3.33;;;;;;;;4995046;28;45605;-72
2021/09/12 13:42:35;;;;;;;;;2.33;2.33;;;;;;;;4990730;28;45599;-71
2021/09/12 13:45:01;;;;;;;;;3.67;2.33;;;;;;;;4999124;27;45520;-71
2021/09/12 13:47:26;;;;;;;;;3.67;2.33;;;;;;;;4991014;28;46200;-71
2021/09/12 13:49:51;;;;;;;;;3.33;3.33;;;;;;;;4992843;28;45247;-71
2021/09/12 13:52:17;;;;;;;;;2.00;2.00;;;;;;;;4986650;28;45255;-72
2021/09/12 13:54:42;;;;;;;;;3.00;2.33;;;;;;;;5001081;28;45452;-72
2021/09/12 13:57:07;;;;;;;;;2.33;2.33;;;;;;;;4973254;28;46222;-71
2021/09/12 13:59:32;;;;;;;;;2.67;2.00;;;;;;;;4996601;28;45444;-71
2021/09/12 14:01:58;;;;;;;;;10.75;7.75;;;;;;;;4986462;28;45396;-72
2021/09/12 14:04:23;;;;;;;;;3.00;3.00;;;;;;;;4979530;28;45293;-72
2021/09/12 14:06:48;;;;;;;;;3.33;3.33;;;;;;;;4995871;27;46478;-70
2021/09/12 14:09:13;;;;;;;;;5.33;5.33;;;;;;;;4988907;27;45465;-69
2021/09/12 14:11:39;;;;;;;;;7.00;3.33;;;;;;;;4975588;28;45385;-70
2021/09/12 14:14:04;;;;;;;;;6.33;6.33;;;;;;;;4984470;28;45337;-70
2021/09/12 14:16:29;;;;;;;;;7.00;6.00;;;;;;;;4993186;28;46258;-70
2021/09/12 14:18:55;;;;;;;;;3.33;3.33;;;;;;;;4996821;28;46432;-70
2021/09/12 14:21:20;;;;;;;;;3.67;3.67;;;;;;;;4969800;28;45509;-71